GCC Virtual Airport Information Service

Hamad International Airport

ICAO: OTHH Country: QA
Latitude: 25.2609 Longitude: 51.6138
Latest Arrival : QTR1003 (OMDB-OTHH) Latest Departure : QTR920 (OTHH-NZAA)


WX CaptureLIVE
Data provided by noaa.gov | Fetched at 13:03:46

METAR : OTHH 051200Z 34019KT 3500 BLDU NSC 25/13 Q1014 TEMPO 4000

TAF : OTHH 051107Z 0512/0618 32019KT 6000 NSC TEMPO 0512/0518 33024G34KT 3000 BLDU


Runway Data for OTHH
Data provided by openaviationdata.com

Runway ID Mag Var Hdg Length Elevation Surface ILS Freq ILS Id ILS Slope
16L 2.24 156° 15912 ft 13 ft Asphalt 108.7 IDE 3
34R 2.24 336° 15912 ft 13 ft Asphalt 110.1 AZM 3
16R 2.24 156° 13944 ft 13 ft Asphalt 108.1 QAT 3
34L 2.24 336° 13944 ft 13 ft Asphalt 111.9 HJJ 3

Hamad International Airport, QA
Use only for reference purposes



Not for navigational purposes.